San Angelo, Texas
Current Conditions -  °F | °C
As of 3:51 PM on Wednesday 17 Dec 2014 (Local Time) from KSJT Reporting Station
Overcast Overcast  
Wind Chill: 58°   Ceiling: 2100
Heat Index: 58°   Visibility: 10mi
Dew Point: 48°   Wind: 10mph
Humidity: 70%   Direction: 190°S
Pressure: 29.99"   Gusts: NA
Location:  31.46°N, 100.44°W
Report Text: KSJT 172151Z 19009KT 10SM OVC021 14/09 A2999 RMK AO2 SLP147 T01440089
Loading
Personal Weather Stations






























Interactive Weather Map New forecast layout! Learn more

10-Day Weather Forecast

Advertisements
Track Severe Weather on mobile